Time;durP1;ratioP1;P1;durP2;ratioP2;P2;SDS_P1;SDS_P2;PMS_P1;PMS_P2;Temp;Humidity;BMP_temperature;BMP_pressure;BME280_temperature;BME280_humidity;BME280_pressure;Samples;Min_cycle;Max_cycle;Signal;HPM_P1;HPM_P2
2023/03/25 00:02:15;;;;;;;;;;;;;;;15.19;78.13;99445.06;5608819;31;34384;-66
2023/03/25 00:05:22;;;;;;;;;;;;;;;15.32;76.37;99439.56;5607640;31;32906;-66
2023/03/25 00:08:27;;;;;;;;;;;;;;;15.23;76.50;99435.56;5606553;31;34305;-66
2023/03/25 00:11:37;;;;;;;;;;;;;;;15.34;74.90;99442.03;5608585;31;34604;-66
2023/03/25 00:14:52;;;;;;;;;;;;;;;15.40;73.85;99438.44;5608338;31;34883;-66
2023/03/25 00:18:06;;;;;;;;;;;;;;;15.42;72.30;99441.72;5607877;31;34344;-67
2023/03/25 00:21:13;;;;;;;;;;;;;;;15.40;71.74;99430.44;5607677;31;35089;-66
2023/03/25 00:24:21;;;;;;;;;;;;;;;15.49;70.44;99429.13;5607753;31;34281;-66
2023/03/25 00:27:28;;;;;;;;;;;;;;;15.52;70.36;99439.41;5608340;31;34399;-66
2023/03/25 00:30:40;;;;;;;;;;;;;;;15.55;69.73;99441.62;5607785;31;34170;-65
2023/03/25 00:33:49;;;;;;;;;;;;;;;15.58;69.34;99444.69;5608597;31;34349;-66
2023/03/25 00:36:57;;;;;;;;;;;;;;;15.62;69.45;99451.22;5595370;31;34245;-66
2023/03/25 00:40:07;;;;;;;;;;;;;;;15.62;69.45;99450.38;5608603;31;33761;-66
2023/03/25 00:43:15;;;;;;;;;;;;;;;15.59;70.08;99440.12;5607517;31;34287;-65
2023/03/25 00:46:25;;;;;;;;;;;;;;;15.49;70.79;99445.94;5608068;31;34212;-66
2023/03/25 00:49:32;;;;;;;;;;;;;;;15.43;71.43;99456.75;5607474;31;33880;-65
2023/03/25 00:52:40;;;;;;;;;;;;;;;15.51;71.69;99448.44;5607481;31;35118;-66
2023/03/25 00:55:48;;;;;;;;;;;;;;;15.43;72.43;99452.22;5607539;31;34172;-65
2023/03/25 00:58:56;;;;;;;;;;;;;;;15.44;73.43;99450.34;5608027;31;34915;-65
2023/03/25 01:02:05;;;;;;;;;;;;;;;15.38;73.97;99444.03;5607203;31;35045;-66
2023/03/25 01:05:12;;;;;;;;;;;;;;;15.34;75.32;99450.06;5607729;31;34264;-65
2023/03/25 01:08:24;;;;;;;;;;;;;;;15.34;76.39;99458.06;5607552;31;34223;-66
2023/03/25 01:11:33;;;;;;;;;;;;;;;15.24;78.07;99463.91;5607820;31;33968;-66
2023/03/25 01:14:42;;;;;;;;;;;;;;;15.19;80.43;99453.06;5606855;31;34336;-66
2023/03/25 01:17:49;;;;;;;;;;;;;;;15.07;84.64;99444.13;5607653;31;34314;-65
2023/03/25 01:20:57;;;;;;;;;;;;;;;14.93;87.97;99440.75;5609275;31;34176;-66
2023/03/25 01:24:05;;;;;;;;;;;;;;;14.86;90.35;99452.53;5609918;31;35167;-66
2023/03/25 01:27:14;;;;;;;;;;;;;;;14.71;93.87;99437.66;5609999;31;34176;-65
2023/03/25 01:30:22;;;;;;;;;;;;;;;14.58;97.97;99436.91;5609681;31;33824;-65
2023/03/25 01:33:32;;;;;;;;;;;;;;;14.44;100.00;99459.41;5610061;31;34248;-66
2023/03/25 01:36:45;;;;;;;;;;;;;;;14.31;100.00;99441.59;5609406;31;34964;-65
2023/03/25 01:39:54;;;;;;;;;;;;;;;14.17;100.00;99459.53;5609904;31;34847;-65
2023/03/25 01:43:08;;;;;;;;;;;;;;;14.13;100.00;99462.84;5610273;31;35036;-65
2023/03/25 01:46:16;;;;;;;;;;;;;;;14.08;100.00;99460.00;5609861;31;34911;-65
2023/03/25 01:49:32;;;;;;;;;;;;;;;14.04;100.00;99451.56;5609137;31;34513;-65
2023/03/25 01:52:40;;;;;;;;;;;;;;;13.92;100.00;99467.44;5609369;31;34339;-65
2023/03/25 01:55:51;;;;;;;;;;;;;;;13.87;100.00;99469.91;5608902;31;34456;-66
2023/03/25 01:59:04;;;;;;;;;;;;;;;13.81;100.00;99464.59;5609739;31;34310;-65
2023/03/25 02:02:16;;;;;;;;;;;;;;;13.64;100.00;99474.09;5609602;31;34324;-65
2023/03/25 02:05:51;;;;;;;;;;;;;;;13.56;100.00;99491.13;5609037;31;33895;-66
2023/03/25 02:09:01;;;;;;;;;;;;;;;13.56;100.00;99487.62;5587180;31;34325;-65
2023/03/25 02:12:09;;;;;;;;;;;;;;;13.49;100.00;99488.50;5609093;31;33810;-65
2023/03/25 02:15:20;;;;;;;;;;;;;;;13.40;100.00;99499.56;5609050;31;34820;-66
2023/03/25 02:18:38;;;;;;;;;;;;;;;13.20;100.00;99502.25;5596368;31;34453;-65
2023/03/25 02:21:59;;;;;;;;;;;;;;;13.05;100.00;99478.47;5609683;31;34387;-65
2023/03/25 02:25:10;;;;;;;;;;;;;;;12.75;100.00;99479.06;5609050;31;34237;-66
2023/03/25 02:28:16;;;;;;;;;;;;;;;12.54;100.00;99478.22;5609636;31;35060;-65
2023/03/25 02:31:39;;;;;;;;;;;;;;;12.34;100.00;99482.69;5609124;31;34736;-65
2023/03/25 02:34:57;;;;;;;;;;;;;;;12.26;100.00;99480.19;5609481;31;34853;-65
2023/03/25 02:38:25;;;;;;;;;;;;;;;12.16;100.00;99472.59;5609564;31;34846;-65
2023/03/25 02:41:41;;;;;;;;;;;;;;;12.06;100.00;99476.66;5608444;31;32826;-65
2023/03/25 02:45:09;;;;;;;;;;;;;;;11.88;100.00;99479.03;5608777;31;34698;-66
2023/03/25 02:48:23;;;;;;;;;;;;;;;11.77;100.00;99475.94;5609397;31;34913;-65
2023/03/25 02:51:44;;;;;;;;;;;;;;;11.76;100.00;99474.28;5608594;31;34889;-66
2023/03/25 02:55:00;;;;;;;;;;;;;;;11.63;100.00;99460.91;5608842;31;34065;-66
2023/03/25 02:58:10;;;;;;;;;;;;;;;11.58;100.00;99463.34;5610023;31;34906;-67
2023/03/25 03:01:17;;;;;;;;;;;;;;;11.44;100.00;99468.75;5609615;31;34477;-67
2023/03/25 03:04:27;;;;;;;;;;;;;;;11.37;100.00;99466.09;5609733;31;34319;-66
2023/03/25 03:07:40;;;;;;;;;;;;;;;11.37;100.00;99462.63;5608846;31;34681;-66
2023/03/25 03:11:05;;;;;;;;;;;;;;;11.42;100.00;99468.97;5608501;31;34827;-66
2023/03/25 03:14:13;;;;;;;;;;;;;;;11.33;100.00;99478.09;5609623;31;34217;-66
2023/03/25 03:17:26;;;;;;;;;;;;;;;11.24;100.00;99471.28;5609551;31;34960;-66
2023/03/25 03:20:35;;;;;;;;;;;;;;;11.16;100.00;99474.94;5596355;31;34112;-67
2023/03/25 03:23:50;;;;;;;;;;;;;;;11.09;100.00;99466.09;5609571;31;34231;-66
2023/03/25 03:27:07;;;;;;;;;;;;;;;11.06;100.00;99482.41;5609476;31;34146;-67
2023/03/25 03:30:33;;;;;;;;;;;;;;;11.06;100.00;99493.03;5609227;31;34265;-66
2023/03/25 03:33:54;;;;;;;;;;;;;;;10.96;100.00;99487.22;5599892;31;35159;-67
2023/03/25 03:37:02;;;;;;;;;;;;;;;10.78;100.00;99486.88;5609526;31;34842;-67
2023/03/25 03:40:16;;;;;;;;;;;;;;;10.66;100.00;99501.62;5608582;31;34262;-67
2023/03/25 03:43:23;;;;;;;;;;;;;;;10.70;100.00;99493.09;5609342;31;35039;-67
2023/03/25 03:46:33;;;;;;;;;;;;;;;10.61;100.00;99499.56;5609197;31;34816;-67
2023/03/25 03:49:58;;;;;;;;;;;;;;;10.56;100.00;99511.75;5608441;31;34266;-68
2023/03/25 03:53:09;;;;;;;;;;;;;;;10.56;100.00;99509.09;5609266;31;34086;-68
2023/03/25 03:56:22;;;;;;;;;;;;;;;10.44;100.00;99519.38;5609556;31;35475;-68
2023/03/25 03:59:47;;;;;;;;;;;;;;;10.44;100.00;99525.50;5609115;31;35004;-68
2023/03/25 04:03:23;;;;;;;;;;;;;;;10.36;100.00;99525.59;5609095;31;34259;-69
2023/03/25 04:06:37;;;;;;;;;;;;;;;10.35;100.00;99528.47;5606945;31;33873;-69
2023/03/25 04:09:53;;;;;;;;;;;;;;;10.26;100.00;99535.69;5451521;31;5051623;-69
2023/03/25 04:13:04;;;;;;;;;;;;;;;10.33;100.00;99533.94;5608904;31;34209;-68
2023/03/25 04:16:12;;;;;;;;;;;;;;;10.39;100.00;99540.34;5608194;31;34862;-68
2023/03/25 04:19:22;;;;;;;;;;;;;;;10.30;100.00;99533.50;5608811;31;34273;-69
2023/03/25 04:22:30;;;;;;;;;;;;;;;10.34;100.00;99550.69;5608172;31;34613;-68
2023/03/25 04:25:40;;;;;;;;;;;;;;;10.33;100.00;99552.50;5608764;31;34389;-69
2023/03/25 04:28:50;;;;;;;;;;;;;;;10.38;100.00;99558.06;5608766;31;34406;-69
2023/03/25 04:31:59;;;;;;;;;;;;;;;10.38;100.00;99565.19;5608044;31;34755;-68
2023/03/25 04:35:06;;;;;;;;;;;;;;;10.36;100.00;99562.72;5608073;31;34103;-69
2023/03/25 04:38:18;;;;;;;;;;;;;;;10.40;100.00;99566.69;5608532;31;34577;-69
2023/03/25 04:41:28;;;;;;;;;;;;;;;10.39;100.00;99567.69;5608504;31;34929;-68
2023/03/25 04:44:38;;;;;;;;;;;;;;;10.41;100.00;99567.47;5608559;31;34321;-68
2023/03/25 04:47:47;;;;;;;;;;;;;;;10.38;100.00;99570.50;5608514;31;34373;-69
2023/03/25 04:50:57;;;;;;;;;;;;;;;10.34;100.00;99582.50;5607550;31;33032;-68
2023/03/25 04:54:06;;;;;;;;;;;;;;;10.37;100.00;99582.94;5608984;31;34280;-68
2023/03/25 04:57:15;;;;;;;;;;;;;;;10.37;100.00;99582.94;5610991;31;34933;-67
2023/03/25 05:00:27;;;;;;;;;;;;;;;10.34;100.00;99575.38;5610196;31;34142;-66
2023/03/25 05:03:38;;;;;;;;;;;;;;;10.41;100.00;99584.19;5610111;31;34533;-68
2023/03/25 05:06:48;;;;;;;;;;;;;;;10.39;100.00;99596.84;5597465;31;34704;-68
2023/03/25 05:09:58;;;;;;;;;;;;;;;10.36;100.00;99591.88;5609762;31;34477;-67
2023/03/25 05:13:12;;;;;;;;;;;;;;;10.39;100.00;99593.38;5610004;31;34885;-67
2023/03/25 05:16:22;;;;;;;;;;;;;;;10.45;100.00;99600.59;5610622;31;34209;-66
2023/03/25 05:19:29;;;;;;;;;;;;;;;10.28;100.00;99605.25;5610645;31;35020;-67
2023/03/25 05:22:36;;;;;;;;;;;;;;;10.39;100.00;99604.78;5609952;31;33423;-67
2023/03/25 05:25:46;;;;;;;;;;;;;;;10.35;100.00;99600.88;5610471;31;34417;-67
2023/03/25 05:28:55;;;;;;;;;;;;;;;10.39;100.00;99607.44;5609826;31;34241;-67
2023/03/25 05:32:03;;;;;;;;;;;;;;;10.38;100.00;99615.56;5609644;31;33778;-67
2023/03/25 05:35:11;;;;;;;;;;;;;;;10.45;100.00;99609.38;5610557;31;34826;-67
2023/03/25 05:38:18;;;;;;;;;;;;;;;10.41;100.00;99607.25;5609732;31;34217;-66
2023/03/25 05:41:39;;;;;;;;;;;;;;;10.48;100.00;99620.59;5610401;31;34429;-67
2023/03/25 05:44:50;;;;;;;;;;;;;;;10.39;100.00;99617.22;5610244;31;34331;-66
2023/03/25 05:47:58;;;;;;;;;;;;;;;10.43;100.00;99610.53;5609695;31;34704;-66
2023/03/25 05:51:12;;;;;;;;;;;;;;;10.32;100.00;99614.47;5609726;31;34198;-66
2023/03/25 05:54:21;;;;;;;;;;;;;;;10.51;100.00;99615.72;5610397;31;34221;-67
2023/03/25 05:57:27;;;;;;;;;;;;;;;10.43;100.00;99615.84;5609469;31;34281;-66
2023/03/25 06:00:33;;;;;;;;;;;;;;;10.34;100.00;99614.31;5610290;31;34602;-66
2023/03/25 06:03:43;;;;;;;;;;;;;;;10.31;100.00;99612.03;5610224;31;34260;-66
2023/03/25 06:06:49;;;;;;;;;;;;;;;10.44;100.00;99615.66;5609279;31;33789;-66
2023/03/25 06:09:56;;;;;;;;;;;;;;;10.43;100.00;99619.31;5609909;31;34683;-66
2023/03/25 06:13:05;;;;;;;;;;;;;;;10.51;100.00;99623.69;5610093;31;34577;-66
2023/03/25 06:16:17;;;;;;;;;;;;;;;10.57;100.00;99630.91;5610120;31;34151;-66
2023/03/25 06:19:25;;;;;;;;;;;;;;;10.65;100.00;99622.84;5609476;31;33872;-66
2023/03/25 06:22:40;;;;;;;;;;;;;;;10.78;100.00;99636.28;5610123;31;34149;-66
2023/03/25 06:25:47;;;;;;;;;;;;;;;10.90;100.00;99625.97;5609809;31;34312;-67
2023/03/25 06:28:58;;;;;;;;;;;;;;;10.88;100.00;99625.34;5610001;31;34794;-67
2023/03/25 06:32:05;;;;;;;;;;;;;;;10.90;100.00;99620.66;5609785;31;34361;-66
2023/03/25 06:35:11;;;;;;;;;;;;;;;11.00;100.00;99625.66;5609316;31;34375;-66
2023/03/25 06:38:18;;;;;;;;;;;;;;;11.16;100.00;99628.06;5609466;31;34639;-65
2023/03/25 06:41:29;;;;;;;;;;;;;;;11.14;100.00;99635.41;5608618;31;33709;-66
2023/03/25 06:44:37;;;;;;;;;;;;;;;11.21;100.00;99637.13;5609135;31;34890;-65
2023/03/25 06:47:47;;;;;;;;;;;;;;;11.22;100.00;99637.94;5609790;31;34174;-65
2023/03/25 06:50:53;;;;;;;;;;;;;;;11.32;100.00;99643.75;5609772;31;34155;-65
2023/03/25 06:54:04;;;;;;;;;;;;;;;11.49;100.00;99647.78;5609813;31;34112;-66
2023/03/25 06:57:11;;;;;;;;;;;;;;;11.55;100.00;99662.97;5609715;31;34312;-65
2023/03/25 07:00:22;;;;;;;;;;;;;;;11.63;100.00;99654.84;5608516;31;34533;-65
2023/03/25 07:03:31;;;;;;;;;;;;;;;11.56;100.00;99656.66;5596338;31;33392;-65
2023/03/25 07:06:41;;;;;;;;;;;;;;;11.89;100.00;99650.78;5609473;31;34212;-66
2023/03/25 07:09:53;;;;;;;;;;;;;;;12.03;100.00;99656.00;5609501;31;34295;-65
2023/03/25 07:13:03;;;;;;;;;;;;;;;12.36;100.00;99658.84;5609017;31;33728;-66
2023/03/25 07:16:10;;;;;;;;;;;;;;;12.35;100.00;99662.53;5608355;31;34561;-65
2023/03/25 07:19:19;;;;;;;;;;;;;;;12.92;100.00;99662.16;5608884;31;33344;-65
2023/03/25 07:22:29;;;;;;;;;;;;;;;13.55;100.00;99664.56;5596052;31;35756;-66
2023/03/25 07:25:36;;;;;;;;;;;;;;;13.17;100.00;99667.78;5609088;31;33830;-66
2023/03/25 07:28:44;;;;;;;;;;;;;;;13.33;100.00;99663.91;5608756;31;34318;-66
2023/03/25 07:31:56;;;;;;;;;;;;;;;13.43;100.00;99673.16;5609411;31;34766;-66
2023/03/25 07:35:08;;;;;;;;;;;;;;;14.01;100.00;99681.34;5596148;31;34428;-65
2023/03/25 07:38:18;;;;;;;;;;;;;;;13.83;100.00;99679.31;5608598;31;34273;-66
2023/03/25 07:41:26;;;;;;;;;;;;;;;14.13;100.00;99679.72;5609151;31;34396;-66
2023/03/25 07:44:38;;;;;;;;;;;;;;;14.88;100.00;99678.28;5609307;31;34353;-65
2023/03/25 07:47:49;;;;;;;;;;;;;;;15.08;100.00;99678.19;5609045;31;35182;-66
2023/03/25 07:50:55;;;;;;;;;;;;;;;15.03;100.00;99678.00;5608276;31;34263;-66
2023/03/25 07:54:02;;;;;;;;;;;;;;;14.74;100.00;99669.50;5608442;31;34174;-66
2023/03/25 07:57:12;;;;;;;;;;;;;;;14.70;100.00;99688.84;5609340;31;34951;-66
2023/03/25 08:00:18;;;;;;;;;;;;;;;14.19;100.00;99681.53;5608247;31;34879;-67
2023/03/25 08:03:26;;;;;;;;;;;;;;;15.14;100.00;99674.66;5609076;31;34938;-66
2023/03/25 08:06:33;;;;;;;;;;;;;;;15.71;100.00;99678.19;5608881;31;34915;-67
2023/03/25 08:09:41;;;;;;;;;;;;;;;16.37;93.41;99681.06;5608236;31;33020;-67
2023/03/25 08:12:50;;;;;;;;;;;;;;;16.79;91.09;99669.50;5608998;31;34371;-67
2023/03/25 08:15:58;;;;;;;;;;;;;;;17.03;82.46;99683.00;5608822;31;33134;-67
2023/03/25 08:19:10;;;;;;;;;;;;;;;16.07;84.54;99671.06;5608043;31;35207;-66
2023/03/25 08:22:20;;;;;;;;;;;;;;;16.47;83.32;99684.88;5607828;31;33109;-66
2023/03/25 08:25:31;;;;;;;;;;;;;;;15.81;83.76;99676.69;5607998;31;34868;-66
2023/03/25 08:28:40;;;;;;;;;;;;;;;16.28;81.94;99677.06;5606882;31;32934;-66
2023/03/25 08:31:51;;;;;;;;;;;;;;;16.84;76.22;99676.88;5607844;31;34176;-67
2023/03/25 08:34:59;;;;;;;;;;;;;;;17.68;71.38;99667.84;5607861;31;34141;-67
2023/03/25 08:38:06;;;;;;;;;;;;;;;18.75;65.05;99671.91;5607734;31;32880;-67
2023/03/25 08:41:15;;;;;;;;;;;;;;;18.46;63.50;99675.53;5594791;31;33748;-66
2023/03/25 08:44:23;;;;;;;;;;;;;;;18.32;62.15;99683.03;5595064;31;32774;-67
2023/03/25 08:47:34;;;;;;;;;;;;;;;17.44;65.21;99671.47;5607631;31;32964;-66
2023/03/25 08:50:42;;;;;;;;;;;;;;;17.70;63.13;99663.88;5607486;31;34481;-66
2023/03/25 08:53:54;;;;;;;;;;;;;;;18.48;60.20;99676.97;5595368;31;35051;-67
2023/03/25 08:57:04;;;;;;;;;;;;;;;18.30;60.78;99671.69;5607376;31;32605;-67
2023/03/25 09:00:14;;;;;;;;;;;;;;;18.63;59.63;99669.25;5608209;31;34835;-66
2023/03/25 09:03:22;;;;;;;;;;;;;;;18.35;60.29;99671.81;5594692;31;33972;-66
2023/03/25 09:06:30;;;;;;;;;;;;;;;16.02;70.20;99656.75;5606850;31;34189;-66
2023/03/25 09:09:52;;;;;;;;;;;;;;;15.32;74.41;99655.22;5607916;31;34330;-67
2023/03/25 09:13:01;;;;;;;;;;;;;;;15.05;78.56;99652.72;5607262;31;34436;-67
2023/03/25 09:16:11;;;;;;;;;;;;;;;15.06;78.63;99651.66;5607790;31;34269;-67
2023/03/25 09:19:25;;;;;;;;;;;;;;;14.93;78.99;99658.94;5594985;31;34927;-67
2023/03/25 09:22:32;;;;;;;;;;;;;;;14.72;84.15;99658.19;5606977;31;35090;-67
2023/03/25 09:25:43;;;;;;;;;;;;;;;14.85;80.51;99660.00;5607090;31;34124;-66
2023/03/25 09:28:51;;;;;;;;;;;;;;;14.69;82.54;99666.66;5594007;31;32754;-67
2023/03/25 09:32:00;;;;;;;;;;;;;;;14.89;80.77;99652.38;5606924;31;34857;-66
2023/03/25 09:35:06;;;;;;;;;;;;;;;15.10;81.32;99663.56;5594178;31;32576;-67
2023/03/25 09:38:15;;;;;;;;;;;;;;;15.00;75.89;99654.41;5593876;31;35165;-67
2023/03/25 09:41:42;;;;;;;;;;;;;;;15.41;77.75;99648.56;5609577;31;34215;-67
2023/03/25 09:44:52;;;;;;;;;;;;;;;15.74;72.25;99646.47;5608861;31;34974;-66
2023/03/25 09:48:17;;;;;;;;;;;;;;;15.58;70.50;99645.19;5609397;31;34161;-66
2023/03/25 09:51:34;;;;;;;;;;;;;;;15.68;69.56;99663.41;5609214;31;33971;-66
2023/03/25 09:54:46;;;;;;;;;;;;;;;15.11;71.45;99656.38;5584059;31;32981;-66
2023/03/25 09:57:57;;;;;;;;;;;;;;;15.07;74.24;99661.31;5596283;31;32920;-66
2023/03/25 10:01:14;;;;;;;;;;;;;;;15.27;75.04;99665.72;5609280;31;34665;-66
2023/03/25 10:04:38;;;;;;;;;;;;;;;15.28;73.90;99676.22;5609012;31;33471;-66
2023/03/25 10:08:03;;;;;;;;;;;;;;;15.68;69.31;99670.63;5609757;31;34199;-65
2023/03/25 10:11:16;;;;;;;;;;;;;;;15.72;69.12;99663.78;5609049;31;33102;-66
2023/03/25 10:14:32;;;;;;;;;;;;;;;15.59;72.28;99673.53;5609273;31;34006;-66
2023/03/25 10:17:47;;;;;;;;;;;;;;;15.94;72.61;99675.72;5596239;31;32422;-66
2023/03/25 10:21:14;;;;;;;;;;;;;;;16.17;67.07;99661.75;5609227;31;33192;-65
2023/03/25 10:24:32;;;;;;;;;;;;;;;16.57;64.40;99664.78;5609907;31;34268;-65
2023/03/25 10:27:41;;;;;;;;;;;;;;;16.72;59.83;99658.03;5608817;31;34878;-66
2023/03/25 10:30:55;;;;;;;;;;;;;;;16.81;60.77;99667.41;5597245;31;34747;-65
2023/03/25 10:34:10;;;;;;;;;;;;;;;16.24;62.43;99659.81;5609153;31;33777;-65
2023/03/25 10:37:23;;;;;;;;;;;;;;;15.77;64.29;99656.75;5610188;31;33418;-67
2023/03/25 10:40:43;;;;;;;;;;;;;;;15.69;66.11;99666.88;5609208;31;34378;-66
2023/03/25 10:43:50;;;;;;;;;;;;;;;15.85;65.50;99661.81;5609015;31;34917;-66
2023/03/25 10:47:01;;;;;;;;;;;;;;;16.39;64.58;99663.75;5609596;31;34530;-66
2023/03/25 10:50:19;;;;;;;;;;;;;;;16.93;59.17;99670.16;5609129;31;34804;-66
2023/03/25 10:53:26;;;;;;;;;;;;;;;17.29;56.44;99653.16;5608832;31;34937;-67
2023/03/25 10:56:39;;;;;;;;;;;;;;;17.73;52.98;99658.06;5608892;31;34328;-67
2023/03/25 10:59:53;;;;;;;;;;;;;;;17.89;52.33;99659.25;5608759;31;34475;-67
2023/03/25 11:03:05;;;;;;;;;;;;;;;17.69;53.10;99648.00;5609676;31;34266;-66
2023/03/25 11:06:22;;;;;;;;;;;;;;;17.11;54.02;99669.28;5608845;31;34376;-67
2023/03/25 11:09:31;;;;;;;;;;;;;;;17.06;53.86;99666.47;5608735;31;34403;-66
2023/03/25 11:12:38;;;;;;;;;;;;;;;16.81;54.39;99663.91;5609539;31;34834;-66
2023/03/25 11:15:51;;;;;;;;;;;;;;;16.68;54.07;99664.06;5609332;31;34327;-67
2023/03/25 11:19:00;;;;;;;;;;;;;;;17.12;53.51;99668.25;5608844;31;33804;-67
2023/03/25 11:22:12;;;;;;;;;;;;;;;16.85;53.88;99668.59;5609393;31;34295;-66
2023/03/25 11:25:29;;;;;;;;;;;;;;;16.37;57.63;99667.69;5595659;31;33524;-66
2023/03/25 11:28:44;;;;;;;;;;;;;;;15.71;59.07;99656.81;5608529;31;34652;-66
2023/03/25 11:32:12;;;;;;;;;;;;;;;14.90;68.74;99676.22;5595489;31;34632;-66
2023/03/25 11:35:24;;;;;;;;;;;;;;;14.93;67.54;99657.09;5609415;31;34874;-66
2023/03/25 11:38:33;;;;;;;;;;;;;;;15.68;62.45;99666.09;5609313;31;34975;-66
2023/03/25 11:41:41;;;;;;;;;;;;;;;16.26;59.20;99661.22;5608516;31;34164;-66
2023/03/25 11:44:52;;;;;;;;;;;;;;;15.97;58.30;99656.59;5609035;31;35059;-66
2023/03/25 11:48:00;;;;;;;;;;;;;;;16.13;58.76;99661.34;5608539;31;33898;-67
2023/03/25 11:51:14;;;;;;;;;;;;;;;15.94;55.26;99667.72;5595548;31;33420;-66
2023/03/25 11:54:28;;;;;;;;;;;;;;;16.02;53.92;99670.12;5609366;31;34232;-66
2023/03/25 11:57:39;;;;;;;;;;;;;;;15.57;54.55;99669.47;5609306;31;34916;-67
2023/03/25 12:00:52;;;;;;;;;;;;;;;15.17;55.95;99661.69;5609170;31;34870;-67
2023/03/25 12:04:08;;;;;;;;;;;;;;;16.62;52.35;99679.19;5594274;31;34392;-67
2023/03/25 12:07:14;;;;;;;;;;;;;;;16.99;51.04;99674.63;5608337;31;34245;-66
2023/03/25 12:10:24;;;;;;;;;;;;;;;18.30;49.18;99682.44;5608286;31;33818;-67
2023/03/25 12:13:55;;;;;;;;;;;;;;;19.17;45.05;99693.94;5608883;31;34359;-66
2023/03/25 12:17:19;;;;;;;;;;;;;;;17.17;48.20;99679.09;5608385;31;34362;-66
2023/03/25 12:20:26;;;;;;;;;;;;;;;16.05;51.13;99665.13;5608328;31;34841;-66
2023/03/25 12:23:48;;;;;;;;;;;;;;;15.62;52.56;99666.97;5595421;31;33525;-65
2023/03/25 12:27:24;;;;;;;;;;;;;;;15.82;51.80;99666.81;5595174;31;33662;-65
2023/03/25 12:30:42;;;;;;;;;;;;;;;15.93;52.26;99668.75;5595584;31;34608;-65
2023/03/25 12:34:14;;;;;;;;;;;;;;;16.10;51.85;99656.44;5608736;31;34931;-67
2023/03/25 12:37:25;;;;;;;;;;;;;;;16.59;51.49;99662.75;5600018;31;33547;-67
2023/03/25 12:40:49;;;;;;;;;;;;;;;16.13;50.19;99644.47;5607681;31;33773;-66
2023/03/25 12:44:07;;;;;;;;;;;;;;;16.33;49.58;99650.44;5608627;31;34415;-66
2023/03/25 12:47:25;;;;;;;;;;;;;;;17.02;48.06;99649.22;5608601;31;34777;-66
2023/03/25 12:50:48;;;;;;;;;;;;;;;18.04;45.55;99635.44;5608549;31;33881;-66
2023/03/25 12:54:00;;;;;;;;;;;;;;;19.85;41.20;99623.03;5607589;31;34213;-66
2023/03/25 12:57:14;;;;;;;;;;;;;;;18.11;43.80;99633.44;5607330;31;34234;-66
2023/03/25 13:00:28;;;;;;;;;;;;;;;17.20;45.52;99623.16;5608183;31;34346;-67
2023/03/25 13:03:43;;;;;;;;;;;;;;;17.54;45.71;99621.59;5607581;31;34369;-66
2023/03/25 13:07:06;;;;;;;;;;;;;;;18.08;43.87;99617.00;5608144;31;34243;-67
2023/03/25 13:10:18;;;;;;;;;;;;;;;17.49;44.72;99608.06;5607651;31;34428;-66
2023/03/25 13:13:27;;;;;;;;;;;;;;;16.92;45.80;99615.75;5594258;31;33430;-66
2023/03/25 13:16:39;;;;;;;;;;;;;;;16.63;46.29;99611.19;5596865;31;33306;-66
2023/03/25 13:19:46;;;;;;;;;;;;;;;16.44;45.47;99614.91;5609797;31;34261;-65
2023/03/25 13:23:00;;;;;;;;;;;;;;;16.37;46.63;99614.16;5609996;31;34293;-66
2023/03/25 13:26:13;;;;;;;;;;;;;;;16.43;46.48;99605.22;5610621;31;34285;-66
2023/03/25 13:29:36;;;;;;;;;;;;;;;16.47;45.67;99604.56;5609530;31;34963;-65
2023/03/25 13:32:51;;;;;;;;;;;;;;;16.38;46.36;99618.47;5609988;31;34269;-65
2023/03/25 13:36:02;;;;;;;;;;;;;;;15.80;46.35;99615.38;5610467;31;34167;-65
2023/03/25 13:39:10;;;;;;;;;;;;;;;16.12;45.12;99619.56;5596970;31;33647;-65
2023/03/25 13:42:34;;;;;;;;;;;;;;;16.53;44.98;99616.22;5610260;31;33972;-64
2023/03/25 13:45:45;;;;;;;;;;;;;;;16.98;44.22;99621.25;5609781;31;34735;-64
2023/03/25 13:48:56;;;;;;;;;;;;;;;16.36;45.44;99625.91;5610353;31;34268;-67
2023/03/25 13:52:06;;;;;;;;;;;;;;;17.26;43.04;99624.12;5610223;31;34876;-67
2023/03/25 13:55:17;;;;;;;;;;;;;;;18.16;41.76;99624.66;5609660;31;34594;-66
2023/03/25 13:58:29;;;;;;;;;;;;;;;19.12;39.95;99633.91;5610221;31;34429;-65
2023/03/25 14:02:15;;;;;;;;;;;;;;;19.35;38.66;99607.69;5609605;31;34994;-67
2023/03/25 14:05:24;;;;;;;;;;;;;;;19.85;37.82;99618.47;5517970;32;34212;-67
2023/03/25 14:08:37;;;;;;;;;;;;;;;20.05;37.16;99617.12;5504873;32;34396;-66
2023/03/25 14:11:44;;;;;;;;;;;;;;;18.64;39.12;99619.00;5517669;32;34054;-66
2023/03/25 14:15:00;;;;;;;;;;;;;;;19.57;38.07;99629.31;5517407;32;34424;-66
2023/03/25 14:18:15;;;;;;;;;;;;;;;19.19;39.00;99624.62;5516735;32;35126;-66
2023/03/25 14:21:37;;;;;;;;;;;;;;;17.98;40.73;99619.44;5529793;32;34223;-65
2023/03/25 14:24:49;;;;;;;;;;;;;;;17.35;42.46;99615.53;5504814;32;34602;-66
2023/03/25 14:27:55;;;;;;;;;;;;;;;17.07;43.29;99607.28;5529296;32;34325;-66
2023/03/25 14:31:27;;;;;;;;;;;;;;;16.33;44.47;99596.91;5529745;32;34140;-65
2023/03/25 14:34:36;;;;;;;;;;;;;;;15.94;45.59;99608.84;5530851;31;34263;-65
2023/03/25 14:37:47;;;;;;;;;;;;;;;15.40;47.68;99607.66;5609915;31;34183;-66
2023/03/25 14:40:58;;;;;;;;;;;;;;;15.38;47.56;99604.41;5596908;31;34232;-66
2023/03/25 14:44:18;;;;;;;;;;;;;;;15.32;47.17;99612.44;5609765;31;34241;-65
2023/03/25 14:47:26;;;;;;;;;;;;;;;15.11;48.19;99609.09;5609383;31;34764;-66
2023/03/25 14:50:37;;;;;;;;;;;;;;;15.09;47.51;99610.38;5609065;31;34219;-66
2023/03/25 14:53:52;;;;;;;;;;;;;;;14.94;48.05;99616.00;5609666;31;35017;-66
2023/03/25 14:57:10;;;;;;;;;;;;;;;14.90;48.36;99609.44;5609680;31;34118;-66
2023/03/25 15:00:25;;;;;;;;;;;;;;;15.00;48.55;99603.66;5608975;31;34206;-66
2023/03/25 15:03:36;;;;;;;;;;;;;;;15.06;48.52;99605.44;5595809;31;33375;-66
2023/03/25 15:06:43;;;;;;;;;;;;;;;14.88;48.00;99605.34;5608166;31;32918;-66
2023/03/25 15:09:55;;;;;;;;;;;;;;;14.78;48.85;99605.81;5608679;31;34097;-66
2023/03/25 15:13:09;;;;;;;;;;;;;;;14.72;49.37;99601.31;5609798;31;34346;-67
2023/03/25 15:16:26;;;;;;;;;;;;;;;14.73;48.77;99611.78;5608767;31;34303;-66
2023/03/25 15:19:50;;;;;;;;;;;;;;;14.70;49.71;99609.56;5609433;31;34390;-65
2023/03/25 15:23:29;;;;;;;;;;;;;;;14.75;48.99;99609.75;5596065;31;32969;-66
2023/03/25 15:26:41;;;;;;;;;;;;;;;14.55;49.01;99610.84;5595059;31;34116;-66
2023/03/25 15:29:53;;;;;;;;;;;;;;;14.48;49.09;99615.38;5608293;31;34849;-66
2023/03/25 15:33:08;;;;;;;;;;;;;;;14.54;49.52;99607.38;5608589;31;34143;-66
2023/03/25 15:36:15;;;;;;;;;;;;;;;14.51;48.53;99623.81;5609421;31;34237;-66
2023/03/25 15:39:25;;;;;;;;;;;;;;;14.61;49.00;99626.03;5608465;31;34182;-66
2023/03/25 15:42:50;;;;;;;;;;;;;;;14.68;48.14;99624.97;5609601;31;34919;-66
2023/03/25 15:45:59;;;;;;;;;;;;;;;14.82;48.37;99623.03;5609407;31;34166;-66
2023/03/25 15:49:27;;;;;;;;;;;;;;;14.84;47.59;99612.16;5608628;31;34224;-66
2023/03/25 15:52:44;;;;;;;;;;;;;;;14.57;48.00;99608.81;5609218;31;34514;-66
2023/03/25 15:55:54;;;;;;;;;;;;;;;14.47;48.47;99603.91;5609283;31;34236;-66
2023/03/25 15:59:04;;;;;;;;;;;;;;;14.23;48.23;99609.94;5609260;31;34231;-67
2023/03/25 16:02:35;;;;;;;;;;;;;;;14.12;48.50;99614.06;5608320;31;32747;-67
2023/03/25 16:05:54;;;;;;;;;;;;;;;14.00;49.23;99594.38;5608878;31;34269;-67
2023/03/25 16:09:01;;;;;;;;;;;;;;;13.98;49.11;99600.97;5594751;31;33602;-66
2023/03/25 16:12:12;;;;;;;;;;;;;;;13.94;49.38;99600.56;5608955;31;33870;-66
2023/03/25 16:15:26;;;;;;;;;;;;;;;13.85;48.94;99605.28;5608832;31;34305;-66
2023/03/25 16:18:37;;;;;;;;;;;;;;;13.80;49.12;99607.75;5608774;31;33890;-67
2023/03/25 16:21:46;;;;;;;;;;;;;;;13.80;49.50;99607.75;5608043;31;34899;-66
2023/03/25 16:24:59;;;;;;;;;;;;;;;13.76;49.00;99608.38;5608362;31;34554;-66
2023/03/25 16:28:12;;;;;;;;;;;;;;;13.68;48.22;99609.41;5608060;31;34324;-67
2023/03/25 16:31:33;;;;;;;;;;;;;;;13.59;48.31;99602.66;5595334;31;35480;-66
2023/03/25 16:34:42;;;;;;;;;;;;;;;13.48;48.55;99613.91;5595308;31;33111;-66
2023/03/25 16:37:54;;;;;;;;;;;;;;;13.43;48.25;99619.87;5608359;31;34464;-67